LGKP

Details ICAO LGKP (AOK)
Name KARPATHOS
Region Greece
Timezone Europe/Athens (UTC+3.0)
Plans Departing 40
Arriving 62
Stats Elevation 66 ft / 20 m (AMSL)
Location 35.421407° 27.146007°
Runways 1
Magnetic Variation 4.630° E
Sunrise 2018-05-21 03:04:23 UTC / 2018-05-21 06:04:23 Local
Sunset 2018-05-21 17:14:28 UTC / 2018-05-21 20:14:28 Local
Advertisement - Login to hide

Runways

ID Width Length Bearing (true) Bearing (mag) Surface Threshold Offset Overrun Length
12 98 ft / 30 m 7,866 ft / 2,398 m 124.49° 119.86° Asphalt 492 ft / 150 m 983 ft / 300 m
30 98 ft / 30 m 7,866 ft / 2,398 m 304.50° 299.87° Asphalt 492 ft / 150 m 458 ft / 140 m

Map

Weather


0- 5 10 15 20 25 30 35+ Temperature / ° C

Clouds and Precipitation
Forecast for 2018-05-21 00:00 UTC. Updated 3 hours ago

Ground ~20,000 ft ~40,000 ft Winds

METAR

LGKP 210150Z AUTO 00000KT //// // ////// 21/16 Q1010 RE//

TAF

Not found

Frequencies

Tower 123.20 MHz INFO
Tower 122.10 MHz INFO
Warning: Do not use this data for real-world aviation or navigation. No guarantee of current accuracy is given.